Kemnay, United Kingdom
Current Conditions -  °F | °C
As of 11:20 PM on Friday 26 Dec 2014 (Local Time) from EGPD Reporting Station
Clear Clear  
Wind Chill: 23°   Ceiling: Unl
Heat Index: 23°   Visibility: 6mi
Dew Point: 23°   Wind: 3mph
Humidity: 100%   Direction: 340°NNW
Pressure: 29.88"   Gusts: NA
Location:  57.24°N, 2.44°W
Report Text: EGPD 262320Z 34003KT CAVOK M05/M05 Q1012
Loading
Personal Weather Stations






























Interactive Weather Map New forecast layout! Learn more

10-Day Weather Forecast

Advertisements
Track Severe Weather on mobile